Time;durP1;ratioP1;P1;durP2;ratioP2;P2;SDS_P1;SDS_P2;PMS_P1;PMS_P2;Temp;Humidity;BMP_temperature;BMP_pressure;BME280_temperature;BME280_humidity;BME280_pressure;Samples;Min_cycle;Max_cycle;Signal;HPM_P1;HPM_P2
2022/04/06 00:02:24;;;;;;;15.45;5.55;;;;;;;8.68;100.00;99571.44;5048230;28;20865;-59
2022/04/06 00:04:49;;;;;;;12.98;5.30;;;;;;;8.70;100.00;99571.31;5047907;28;20142;-59
2022/04/06 00:07:15;;;;;;;12.65;4.88;;;;;;;8.70;100.00;99555.59;5048140;28;20063;-59
2022/04/06 00:09:41;;;;;;;16.23;5.43;;;;;;;8.69;100.00;99559.16;5047038;28;20144;-59
2022/04/06 00:12:10;;;;;;;12.68;5.32;;;;;;;8.67;100.00;99561.03;5048844;28;20024;-59
2022/04/06 00:14:36;;;;;;;11.05;5.03;;;;;;;8.65;100.00;99568.13;5047437;28;20055;-59
2022/04/06 00:17:05;;;;;;;10.40;5.47;;;;;;;8.68;100.00;99563.56;5046940;28;20039;-59
2022/04/06 00:19:32;;;;;;;8.93;4.55;;;;;;;8.68;100.00;99562.72;5030451;28;20081;-59
2022/04/06 00:21:57;;;;;;;9.32;4.38;;;;;;;8.64;100.00;99555.97;5028826;28;20059;-60
2022/04/06 00:24:22;;;;;;;12.93;5.72;;;;;;;8.53;100.00;99542.59;5047339;28;20028;-59
2022/04/06 00:26:48;;;;;;;13.15;5.35;;;;;;;8.62;100.00;99552.56;5047046;28;20098;-59
2022/04/06 00:29:13;;;;;;;9.68;4.75;;;;;;;8.59;100.00;99544.88;5047849;28;20026;-59
2022/04/06 00:31:38;;;;;;;10.57;4.70;;;;;;;8.63;100.00;99546.41;5046682;28;20790;-59
2022/04/06 00:34:04;;;;;;;10.10;4.47;;;;;;;8.63;100.00;99547.25;5047556;28;20090;-59
2022/04/06 00:36:29;;;;;;;12.90;5.68;;;;;;;8.62;100.00;99547.31;5047535;28;20142;-59
2022/04/06 00:38:55;;;;;;;6.57;3.78;;;;;;;8.65;100.00;99549.81;5048809;28;20805;-59
2022/04/06 00:41:21;;;;;;;9.85;4.85;;;;;;;8.59;100.00;99548.34;5037963;28;20024;-59
2022/04/06 00:44:13;;;;;;;9.52;4.90;;;;;;;8.59;100.00;99543.09;5046966;28;20028;-59
2022/04/06 00:46:38;;;;;;;12.88;5.05;;;;;;;8.26;100.00;99483.91;5048008;28;20052;-59
2022/04/06 00:49:07;;;;;;;12.45;4.70;;;;;;;8.31;100.00;99495.00;5046575;28;20030;-59
2022/04/06 00:51:33;;;;;;;9.63;4.57;;;;;;;8.30;100.00;99488.06;5046190;28;20143;-59
2022/04/06 00:53:58;;;;;;;8.90;4.30;;;;;;;8.36;100.00;99496.44;5047606;28;20020;-59
2022/04/06 00:56:24;;;;;;;11.25;5.20;;;;;;;8.61;100.00;99532.56;5029475;28;20976;-59
2022/04/06 00:58:49;;;;;;;8.38;3.67;;;;;;;8.40;100.00;99497.09;5028534;28;20109;-59
2022/04/06 01:01:15;;;;;;;8.57;4.10;;;;;;;8.57;100.00;99528.41;5047264;28;20037;-59
2022/04/06 01:03:40;;;;;;;10.45;4.75;;;;;;;8.58;100.00;99523.09;5046589;28;20179;-59
2022/04/06 01:06:07;;;;;;;7.70;4.15;;;;;;;8.53;100.00;99519.91;5028217;28;20859;-59
2022/04/06 01:08:33;;;;;;;10.07;4.18;;;;;;;8.57;100.00;99525.81;5045259;28;20020;-59
2022/04/06 01:10:58;;;;;;;11.05;4.43;;;;;;;8.54;100.00;99525.97;5047235;28;20885;-59
2022/04/06 01:13:24;;;;;;;9.85;4.47;;;;;;;8.49;100.00;99518.38;5045909;28;20138;-60
2022/04/06 01:15:50;;;;;;;9.45;4.38;;;;;;;8.52;100.00;99517.34;5028797;28;20032;-59
2022/04/06 01:18:15;;;;;;;7.93;3.63;;;;;;;8.54;100.00;99512.88;5046157;28;20024;-59
2022/04/06 01:20:40;;;;;;;8.70;4.40;;;;;;;8.51;100.00;99513.06;5028170;28;20881;-59
2022/04/06 01:23:06;;;;;;;7.82;4.65;;;;;;;8.42;100.00;99483.00;5047264;28;21022;-59
2022/04/06 01:25:33;;;;;;;8.45;4.28;;;;;;;8.49;100.00;99504.44;5046098;28;20039;-59
2022/04/06 01:27:59;;;;;;;6.55;3.13;;;;;;;8.48;100.00;99511.44;5046382;28;20039;-60
2022/04/06 01:30:24;;;;;;;12.43;5.40;;;;;;;8.30;100.00;99475.00;5045152;28;20036;-59
2022/04/06 01:32:50;;;;;;;13.40;4.50;;;;;;;8.47;100.00;99517.63;5045855;28;20040;-59
2022/04/06 01:35:15;;;;;;;12.57;5.20;;;;;;;8.51;100.00;99513.91;5046311;28;20032;-59
2022/04/06 01:37:40;;;;;;;14.13;5.13;;;;;;;8.48;100.00;99523.72;5045780;28;20024;-59
2022/04/06 01:40:06;;;;;;;12.75;4.57;;;;;;;8.45;100.00;99514.22;5047795;28;20754;-60
2022/04/06 01:42:32;;;;;;;8.55;4.53;;;;;;;8.49;100.00;99517.53;5047624;28;20097;-60
2022/04/06 01:44:58;;;;;;;9.45;4.18;;;;;;;8.41;100.00;99502.25;5047218;28;20028;-59
2022/04/06 01:47:23;;;;;;;11.20;3.92;;;;;;;8.48;100.00;99497.53;5046371;28;20035;-59
2022/04/06 01:52:33;;;;;;;11.88;5.03;;;;;;;8.18;100.00;99460.75;5063676;28;20046;-59
2022/04/06 01:55:02;;;;;;;11.55;4.72;;;;;;;8.44;100.00;99503.88;5065841;28;20088;-59
2022/04/06 01:57:31;;;;;;;8.43;4.00;;;;;;;8.46;100.00;99502.84;5048078;28;20031;-60
2022/04/06 01:59:57;;;;;;;8.02;4.07;;;;;;;8.46;100.00;99502.00;5065350;28;20023;-59
2022/04/06 02:02:26;;;;;;;13.30;4.25;;;;;;;8.45;100.00;99500.31;5065806;28;20058;-59
2022/04/06 02:04:51;;;;;;;9.60;5.38;;;;;;;8.40;100.00;99495.34;5065576;28;20024;-59
2022/04/06 02:07:17;;;;;;;7.43;4.22;;;;;;;8.40;100.00;99491.88;5065383;28;20042;-59
2022/04/06 02:09:43;;;;;;;9.52;5.05;;;;;;;8.43;100.00;99503.00;5065600;28;20027;-60
2022/04/06 02:12:10;;;;;;;8.70;5.00;;;;;;;8.41;100.00;99485.72;5067044;28;20032;-59
2022/04/06 02:14:35;;;;;;;22.88;6.70;;;;;;;8.28;100.00;99468.97;5047538;28;20030;-60
2022/04/06 02:17:03;;;;;;;12.65;5.25;;;;;;;8.43;100.00;99486.47;5066748;28;20027;-59
2022/04/06 02:19:29;;;;;;;9.38;4.72;;;;;;;8.37;100.00;99484.19;5065366;28;20845;-59
2022/04/06 02:21:54;;;;;;;14.88;4.93;;;;;;;8.33;100.00;99478.28;5065445;28;20171;-59
2022/04/06 02:24:20;;;;;;;17.27;4.75;;;;;;;8.31;100.00;99476.69;5065845;28;20047;-60
2022/04/06 02:26:45;;;;;;;9.43;4.53;;;;;;;8.29;100.00;99470.69;5065320;28;20028;-59
2022/04/06 02:29:12;;;;;;;13.77;5.50;;;;;;;8.30;100.00;99483.69;5065854;28;20024;-59
2022/04/06 02:31:37;;;;;;;13.85;5.43;;;;;;;8.25;100.00;99463.91;5065274;28;20055;-59
2022/04/06 02:34:03;;;;;;;13.88;4.55;;;;;;;8.33;100.00;99467.81;5065130;28;20027;-59
2022/04/06 02:36:28;;;;;;;16.70;5.82;;;;;;;8.39;100.00;99471.84;5047487;28;20116;-59
2022/04/06 02:38:54;;;;;;;13.10;6.28;;;;;;;8.42;100.00;99471.66;5047235;28;20081;-60
2022/04/06 02:41:19;;;;;;;11.48;5.28;;;;;;;8.44;100.00;99464.59;5066673;28;20912;-59
2022/04/06 02:43:45;;;;;;;7.15;4.97;;;;;;;8.34;100.00;99450.34;5071309;28;20126;-59
2022/04/06 02:46:10;;;;;;;10.18;4.60;;;;;;;8.36;100.00;99451.94;5069181;28;20139;-60
2022/04/06 02:48:36;;;;;;;17.27;4.85;;;;;;;8.33;100.00;99446.03;5069214;28;20929;-59
2022/04/06 02:51:01;;;;;;;9.57;5.30;;;;;;;8.37;100.00;99450.16;5068839;28;20899;-59
2022/04/06 02:53:27;;;;;;;13.63;4.70;;;;;;;8.31;100.00;99438.28;5069120;28;20027;-60
2022/04/06 02:55:52;;;;;;;10.45;4.95;;;;;;;8.31;100.00;99442.66;5068999;28;20028;-59
2022/04/06 02:58:17;;;;;;;12.85;4.82;;;;;;;8.41;100.00;99454.31;5068516;28;20058;-59
2022/04/06 03:00:43;;;;;;;16.15;5.45;;;;;;;8.42;100.00;99450.72;5069054;28;20028;-59
2022/04/06 03:03:08;;;;;;;12.95;5.38;;;;;;;8.36;100.00;99441.47;5070335;28;20898;-59
2022/04/06 03:05:34;;;;;;;8.15;4.07;;;;;;;8.39;100.00;99445.69;5051898;28;20935;-59
2022/04/06 03:07:59;;;;;;;10.52;4.60;;;;;;;8.39;100.00;99440.44;5068750;28;20879;-59
2022/04/06 03:10:24;;;;;;;12.52;4.15;;;;;;;8.45;100.00;99445.34;5068950;28;20031;-59
2022/04/06 03:12:50;;;;;;;10.82;5.15;;;;;;;8.46;100.00;99441.78;5069450;28;20819;-60
2022/04/06 03:15:15;;;;;;;10.73;5.20;;;;;;;8.40;100.00;99434.28;5068547;28;20030;-60
2022/04/06 03:17:41;;;;;;;8.73;4.25;;;;;;;8.43;100.00;99447.19;5068460;28;20027;-59
2022/04/06 03:20:09;;;;;;;9.45;4.70;;;;;;;8.38;100.00;99433.53;5070367;28;20032;-59
2022/04/06 03:22:34;;;;;;;10.18;4.93;;;;;;;8.38;100.00;99441.41;5068412;28;20019;-59
2022/04/06 03:25:00;;;;;;;11.82;4.07;;;;;;;8.29;100.00;99421.81;5068413;28;20055;-59
2022/04/06 03:27:25;;;;;;;12.32;5.53;;;;;;;8.30;100.00;99420.03;5069364;28;20846;-59
2022/04/06 03:29:51;;;;;;;12.40;4.65;;;;;;;8.22;100.00;99408.19;5068058;28;20027;-59
2022/04/06 03:32:16;;;;;;;11.00;4.60;;;;;;;8.32;100.00;99428.63;5067927;28;20897;-59
2022/04/06 03:34:42;;;;;;;8.95;4.03;;;;;;;8.29;100.00;99423.56;5068382;28;20023;-59
2022/04/06 03:37:07;;;;;;;9.77;4.53;;;;;;;7.98;100.00;99383.41;5067929;28;20974;-59
2022/04/06 03:39:33;;;;;;;11.18;5.65;;;;;;;8.30;100.00;99427.88;5066604;28;20127;-60
2022/04/06 03:41:58;;;;;;;14.65;5.22;;;;;;;8.28;100.00;99427.09;5029554;28;20038;-59
2022/04/06 03:44:24;;;;;;;10.73;5.35;;;;;;;8.19;100.00;99403.13;5047366;28;20796;-59
2022/04/06 03:46:49;;;;;;;9.07;4.63;;;;;;;8.12;100.00;99401.78;5049290;28;20869;-59
2022/04/06 03:49:15;;;;;;;10.82;5.35;;;;;;;8.24;100.00;99415.97;5048879;28;20039;-59
2022/04/06 03:51:40;;;;;;;16.90;5.38;;;;;;;8.13;100.00;99408.72;5048452;28;20024;-59
2022/04/06 03:54:05;;;;;;;9.95;5.75;;;;;;;8.16;100.00;99403.31;5048779;28;20123;-59
2022/04/06 03:56:32;;;;;;;13.02;6.47;;;;;;;8.11;100.00;99394.84;5047421;28;20135;-59
2022/04/06 03:58:57;;;;;;;13.82;5.85;;;;;;;8.18;100.00;99406.66;5047352;28;20127;-59
2022/04/06 04:01:23;;;;;;;11.90;4.85;;;;;;;8.13;100.00;99393.03;5049037;28;20034;-59
2022/04/06 04:03:48;;;;;;;12.73;4.85;;;;;;;8.19;100.00;99408.38;5047047;28;20024;-59
2022/04/06 04:06:13;;;;;;;11.07;5.22;;;;;;;8.14;100.00;99402.53;5047402;28;20089;-59
2022/04/06 04:08:39;;;;;;;13.88;4.75;;;;;;;8.19;100.00;99403.13;5047210;28;20877;-60
2022/04/06 04:11:04;;;;;;;14.32;4.95;;;;;;;8.12;100.00;99388.72;5048549;28;20148;-59
2022/04/06 04:13:30;;;;;;;12.20;4.03;;;;;;;7.88;100.00;99350.00;5029354;28;20036;-59
2022/04/06 04:15:55;;;;;;;16.00;5.22;;;;;;;7.94;100.00;99366.19;5048731;28;20032;-59
2022/04/06 04:18:20;;;;;;;11.88;5.18;;;;;;;8.11;100.00;99407.94;5046852;28;20031;-59
2022/04/06 04:20:46;;;;;;;13.48;4.38;;;;;;;8.15;100.00;99398.16;5047451;28;20038;-59
2022/04/06 04:23:11;;;;;;;11.23;5.05;;;;;;;8.13;100.00;99395.63;5047073;28;20548;-59
2022/04/06 04:25:37;;;;;;;13.70;4.78;;;;;;;8.18;100.00;99404.06;5046815;28;20031;-59
2022/04/06 04:28:03;;;;;;;12.05;5.10;;;;;;;8.19;100.00;99403.13;5046764;28;20090;-59
2022/04/06 04:30:28;;;;;;;10.68;4.10;;;;;;;8.13;100.00;99390.41;5046430;28;20136;-59
2022/04/06 04:32:54;;;;;;;11.07;4.53;;;;;;;8.01;100.00;99375.38;5046912;28;20032;-59
2022/04/06 04:35:19;;;;;;;13.02;4.38;;;;;;;7.85;100.00;99356.25;5047898;28;20034;-59
2022/04/06 04:37:45;;;;;;;14.30;4.60;;;;;;;8.12;100.00;99390.47;5048035;28;20034;-59
2022/04/06 04:40:10;;;;;;;10.80;4.03;;;;;;;8.11;100.00;99384.38;5046218;28;20024;-59
2022/04/06 04:42:36;;;;;;;14.88;4.18;;;;;;;8.16;100.00;99390.22;5045595;28;20028;-59
2022/04/06 04:45:03;;;;;;;8.80;4.35;;;;;;;8.16;100.00;99392.84;5047644;28;20055;-59
2022/04/06 04:47:30;;;;;;;15.52;4.43;;;;;;;8.16;100.00;99398.06;5045095;28;20524;-59
2022/04/06 04:49:56;;;;;;;9.02;4.07;;;;;;;8.14;100.00;99384.22;5045336;28;20035;-59
2022/04/06 04:52:21;;;;;;;13.35;5.25;;;;;;;8.09;100.00;99380.19;5045430;28;20032;-60
2022/04/06 04:54:47;;;;;;;7.95;3.35;;;;;;;8.12;100.00;99375.63;5045623;28;20028;-59
2022/04/06 04:57:12;;;;;;;12.95;5.13;;;;;;;8.12;100.00;99383.47;5045880;28;20159;-59
2022/04/06 04:59:37;;;;;;;13.82;4.32;;;;;;;8.07;100.00;99377.66;5046850;28;20097;-60
2022/04/06 05:02:03;;;;;;;9.95;4.55;;;;;;;8.10;100.00;99376.66;5045730;28;20139;-59
2022/04/06 05:04:29;;;;;;;8.25;4.32;;;;;;;8.09;100.00;99375.81;5045186;28;20028;-59
2022/04/06 05:06:54;;;;;;;12.23;4.45;;;;;;;8.12;100.00;99377.41;5028648;28;20947;-59
2022/04/06 05:09:19;;;;;;;15.07;5.00;;;;;;;8.14;100.00;99381.59;5045892;28;20109;-60
2022/04/06 05:11:45;;;;;;;10.00;3.97;;;;;;;8.06;100.00;99355.06;5027222;28;20074;-59
2022/04/06 05:14:10;;;;;;;6.85;4.10;;;;;;;8.05;100.00;99369.03;5044830;28;20889;-59
2022/04/06 05:16:35;;;;;;;9.40;4.22;;;;;;;8.08;100.00;99378.50;5045835;28;20028;-59
2022/04/06 05:19:01;;;;;;;8.52;4.40;;;;;;;8.04;100.00;99375.19;5045181;28;20086;-60
2022/04/06 05:21:27;;;;;;;12.45;4.55;;;;;;;7.92;100.00;99362.81;5046175;28;20028;-59
2022/04/06 05:23:52;;;;;;;22.58;4.45;;;;;;;7.89;100.00;99378.69;5046753;28;20056;-59
2022/04/06 05:26:17;;;;;;;10.27;4.50;;;;;;;7.75;100.00;99360.31;5046556;28;20770;-59
2022/04/06 05:28:43;;;;;;;10.75;4.28;;;;;;;7.63;100.00;99353.16;5045654;28;20996;-59
2022/04/06 05:31:08;;;;;;;9.05;4.15;;;;;;;7.71;100.00;99374.47;5044605;28;20028;-59
2022/04/06 05:33:34;;;;;;;12.20;4.65;;;;;;;7.64;100.00;99362.66;5045816;28;20086;-59
2022/04/06 05:35:59;;;;;;;9.35;4.15;;;;;;;7.46;100.00;99342.75;5045067;28;20040;-59
2022/04/06 05:38:25;;;;;;;13.32;5.13;;;;;;;7.61;100.00;99368.06;5045024;28;20024;-59
2022/04/06 05:40:51;;;;;;;7.28;3.60;;;;;;;7.56;100.00;99370.94;5044192;28;20047;-60
2022/04/06 05:43:17;;;;;;;10.88;4.30;;;;;;;7.55;100.00;99371.84;5047345;28;20900;-59
2022/04/06 05:45:42;;;;;;;11.48;4.60;;;;;;;7.28;100.00;99325.47;5045575;28;20024;-59
2022/04/06 05:48:08;;;;;;;8.82;4.53;;;;;;;7.61;100.00;99375.91;5045546;28;20042;-59
2022/04/06 05:50:34;;;;;;;7.85;4.28;;;;;;;7.62;100.00;99382.81;5045639;28;20031;-59
2022/04/06 05:52:59;;;;;;;16.83;4.13;;;;;;;7.61;100.00;99374.13;5044753;28;20032;-59
2022/04/06 05:55:25;;;;;;;13.02;3.47;;;;;;;7.65;100.00;99382.66;5045710;28;20804;-59
2022/04/06 05:57:50;;;;;;;17.05;4.35;;;;;;;7.76;100.00;99387.28;5047195;28;20210;-59
2022/04/06 06:00:16;;;;;;;10.65;3.97;;;;;;;7.77;100.00;99389.84;5048126;28;20036;-59
2022/04/06 06:02:43;;;;;;;13.15;3.95;;;;;;;7.69;100.00;99360.66;5045806;28;20063;-59
2022/04/06 06:05:08;;;;;;;13.38;4.35;;;;;;;7.84;100.00;99380.69;5047285;28;20036;-59
2022/04/06 06:07:34;;;;;;;13.02;4.60;;;;;;;7.74;100.00;99384.75;5027617;28;20916;-59
2022/04/06 06:10:02;;;;;;;8.70;4.43;;;;;;;7.43;100.00;99363.84;5027420;28;20039;-59
2022/04/06 06:12:27;;;;;;;9.48;4.63;;;;;;;7.40;100.00;99390.97;5044683;28;20039;-59
2022/04/06 06:14:52;;;;;;;11.00;5.13;;;;;;;7.21;100.00;99374.59;5047772;28;20032;-59
2022/04/06 06:17:18;;;;;;;12.30;4.85;;;;;;;7.22;100.00;99383.28;5049520;28;20039;-59
2022/04/06 06:19:43;;;;;;;6.57;4.00;;;;;;;6.95;100.00;99357.69;5051266;28;20876;-59
2022/04/06 06:22:08;;;;;;;9.25;4.90;;;;;;;7.11;100.00;99384.69;5049808;28;20048;-60
2022/04/06 06:24:34;;;;;;;8.50;4.95;;;;;;;6.99;100.00;99363.59;5049488;28;20130;-60
2022/04/06 06:26:59;;;;;;;9.75;5.53;;;;;;;7.00;100.00;99365.25;5049726;28;20063;-59
2022/04/06 06:29:25;;;;;;;10.55;4.93;;;;;;;7.07;100.00;99388.38;5049805;28;20040;-59
2022/04/06 06:31:50;;;;;;;11.38;4.57;;;;;;;6.82;100.00;99334.91;5049809;28;20024;-59
2022/04/06 06:34:16;;;;;;;12.93;5.50;;;;;;;6.85;100.00;99351.25;5033108;28;20028;-60
2022/04/06 06:36:41;;;;;;;8.63;4.80;;;;;;;7.05;100.00;99379.78;5051243;28;20032;-59
2022/04/06 06:39:06;;;;;;;11.77;5.32;;;;;;;7.07;100.00;99377.91;5032108;28;20017;-60
2022/04/06 06:41:34;;;;;;;19.13;4.97;;;;;;;7.05;100.00;99386.75;5050410;28;20034;-59
2022/04/06 06:44:00;;;;;;;9.23;4.78;;;;;;;7.09;100.00;99381.31;5051563;28;20091;-59
2022/04/06 06:46:25;;;;;;;10.10;5.22;;;;;;;7.05;100.00;99373.72;5052118;28;20905;-60
2022/04/06 06:48:51;;;;;;;9.60;4.53;;;;;;;7.06;100.00;99365.78;5050102;28;20035;-59
2022/04/06 06:51:17;;;;;;;11.27;4.47;;;;;;;6.99;100.00;99337.47;5049729;28;20039;-59
2022/04/06 06:53:43;;;;;;;10.00;4.20;;;;;;;7.09;100.00;99347.38;5032017;28;20039;-60
2022/04/06 06:56:08;;;;;;;7.63;4.47;;;;;;;7.23;100.00;99362.31;5048253;28;20782;-60
2022/04/06 06:58:34;;;;;;;11.20;4.63;;;;;;;7.22;100.00;99349.31;5031963;28;20035;-59
2022/04/06 07:01:00;;;;;;;13.70;3.78;;;;;;;7.33;100.00;99368.72;5030180;28;20910;-59
2022/04/06 07:03:25;;;;;;;13.20;4.53;;;;;;;7.34;100.00;99359.09;5049081;28;20039;-59
2022/04/06 07:05:50;;;;;;;10.35;4.70;;;;;;;7.43;100.00;99351.63;5047945;28;20039;-59
2022/04/06 07:08:16;;;;;;;8.13;3.85;;;;;;;7.62;100.00;99360.13;5048035;28;20032;-59
2022/04/06 07:10:45;;;;;;;10.57;3.88;;;;;;;7.78;100.00;99360.13;5047481;28;20060;-59
2022/04/06 07:13:12;;;;;;;12.38;4.72;;;;;;;7.87;100.00;99359.63;5048240;28;20032;-59
2022/04/06 07:15:39;;;;;;;8.15;3.42;;;;;;;7.98;100.00;99359.84;5048622;28;20110;-59
2022/04/06 07:18:06;;;;;;;11.10;3.33;;;;;;;7.92;100.00;99341.91;5048379;28;20032;-60
2022/04/06 07:20:32;;;;;;;12.48;3.33;;;;;;;8.11;100.00;99363.47;5049729;28;20024;-60
2022/04/06 07:22:57;;;;;;;7.70;3.25;;;;;;;8.17;100.00;99347.44;5049531;28;20895;-60
2022/04/06 07:25:23;;;;;;;5.05;2.45;;;;;;;8.19;100.00;99345.56;5048532;28;20137;-60
2022/04/06 07:27:48;;;;;;;9.77;2.97;;;;;;;8.18;100.00;99337.78;5020795;28;20915;-60
2022/04/06 07:30:14;;;;;;;4.75;2.28;;;;;;;8.21;100.00;99343.69;5048689;28;20027;-60
2022/04/06 07:32:40;;;;;;;5.93;2.88;;;;;;;8.08;100.00;99326.16;5050727;28;20038;-60
2022/04/06 07:35:07;;;;;;;7.78;2.88;;;;;;;8.25;100.00;99348.78;5048190;28;20024;-59
2022/04/06 07:37:51;;;;;;;7.47;2.75;;;;;;;8.30;100.00;99352.84;5047415;28;20261;-59
2022/04/06 07:40:18;;;;;;;9.63;2.58;;;;;;;8.38;100.00;99334.09;5048006;28;20024;-59
2022/04/06 07:42:44;;;;;;;5.30;2.70;;;;;;;8.45;100.00;99340.66;5048347;28;20031;-58
2022/04/06 07:45:14;;;;;;;6.15;2.67;;;;;;;8.51;100.00;99325.41;5046853;28;20039;-58
2022/04/06 07:47:41;;;;;;;5.00;2.05;;;;;;;8.61;100.00;99321.31;5046832;28;20137;-59
2022/04/06 07:50:07;;;;;;;8.82;2.60;;;;;;;8.83;100.00;99318.25;5046564;28;20035;-59
2022/04/06 07:52:33;;;;;;;6.25;2.60;;;;;;;9.00;100.00;99312.81;5046706;28;20482;-59
2022/04/06 07:54:59;;;;;;;8.65;2.55;;;;;;;9.11;100.00;99320.88;5046039;28;20024;-59
2022/04/06 07:57:24;;;;;;;7.10;2.42;;;;;;;8.74;100.00;99242.88;5046449;28;20035;-59
2022/04/06 07:59:51;;;;;;;5.97;2.65;;;;;;;9.17;100.00;99319.66;5047447;28;20202;-59
2022/04/06 08:02:16;;;;;;;10.63;1.65;;;;;;;9.14;100.00;99315.44;5046765;28;20059;-59
2022/04/06 08:04:42;;;;;;;9.07;3.00;;;;;;;9.12;100.00;99306.84;5046573;28;20031;-59
2022/04/06 08:07:07;;;;;;;9.40;2.35;;;;;;;9.13;100.00;99316.38;5046804;28;20110;-59
2022/04/06 08:09:32;;;;;;;5.53;1.88;;;;;;;9.14;100.00;99304.97;5048204;28;20039;-59
2022/04/06 08:11:58;;;;;;;10.20;2.63;;;;;;;9.22;100.00;99302.72;5047904;28;20135;-60
2022/04/06 08:14:23;;;;;;;7.32;2.25;;;;;;;9.14;100.00;99288.41;5048314;28;20030;-59
2022/04/06 08:16:49;;;;;;;7.47;2.28;;;;;;;9.30;100.00;99314.47;5038898;28;20964;-59
2022/04/06 08:19:14;;;;;;;7.13;2.47;;;;;;;9.32;100.00;99317.88;5046331;28;20789;-59
2022/04/06 08:21:40;;;;;;;8.65;2.42;;;;;;;9.23;100.00;99312.25;5047987;28;20039;-59
2022/04/06 08:24:06;;;;;;;5.68;2.13;;;;;;;9.20;100.00;99309.81;5046235;28;20030;-59
2022/04/06 08:26:31;;;;;;;5.38;2.10;;;;;;;9.01;100.00;99277.00;5046275;28;20321;-59
2022/04/06 08:28:57;;;;;;;6.32;2.00;;;;;;;9.28;100.00;99316.38;5046105;28;20027;-60
2022/04/06 08:31:22;;;;;;;10.70;2.10;;;;;;;9.26;100.00;99307.78;5046081;28;20092;-59
2022/04/06 08:33:48;;;;;;;6.07;2.30;;;;;;;9.39;100.00;99312.16;5045859;28;20886;-59
2022/04/06 08:36:13;;;;;;;5.65;2.05;;;;;;;9.39;100.00;99312.16;5028301;28;20057;-59
2022/04/06 08:38:38;;;;;;;3.63;1.85;;;;;;;9.33;100.00;99319.56;5047773;28;20836;-59
2022/04/06 08:41:06;;;;;;;4.88;2.05;;;;;;;9.28;100.00;99317.22;5046417;28;20024;-59
2022/04/06 08:43:32;;;;;;;5.03;1.90;;;;;;;9.00;100.00;99265.66;5027729;28;20035;-59
2022/04/06 08:45:57;;;;;;;5.82;2.45;;;;;;;9.29;100.00;99307.56;5046088;28;20901;-59
2022/04/06 08:48:28;;;;;;;8.35;2.65;;;;;;;9.22;100.00;99305.34;5046343;28;20028;-59
2022/04/06 08:50:54;;;;;;;6.72;2.22;;;;;;;9.24;100.00;99315.72;5046354;28;20032;-59
2022/04/06 08:53:20;;;;;;;14.35;2.05;;;;;;;8.67;100.00;99228.47;5028058;28;20927;-59
2022/04/06 08:55:46;;;;;;;5.22;1.75;;;;;;;9.14;100.00;99312.81;5029336;28;20031;-59
2022/04/06 08:58:11;;;;;;;3.47;1.58;;;;;;;9.20;100.00;99311.59;5045797;28;20020;-59
2022/04/06 09:00:37;;;;;;;7.57;1.83;;;;;;;8.98;100.00;99285.88;5045812;28;20032;-59
2022/04/06 09:03:02;;;;;;;4.18;1.65;;;;;;;9.08;100.00;99299.25;5045589;28;20028;-59
2022/04/06 09:05:29;;;;;;;6.47;2.58;;;;;;;9.12;100.00;99303.38;5045991;28;20024;-59
2022/04/06 09:07:55;;;;;;;4.22;1.88;;;;;;;9.11;100.00;99310.41;5045639;28;20123;-59
2022/04/06 09:10:38;;;;;;;8.60;2.38;;;;;;;9.09;100.00;99312.25;5047402;28;20062;-59
2022/04/06 09:13:07;;;;;;;5.40;2.10;;;;;;;9.13;100.00;99313.75;5046737;28;20087;-59
2022/04/06 09:15:33;;;;;;;6.15;2.28;;;;;;;9.04;100.00;99313.47;5044899;28;20101;-59
2022/04/06 09:18:00;;;;;;;5.65;1.90;;;;;;;8.99;100.00;99315.56;5040719;28;20135;-59
2022/04/06 09:20:26;;;;;;;6.50;2.30;;;;;;;8.98;100.00;99311.25;5043358;28;20131;-59
2022/04/06 09:22:51;;;;;;;5.45;2.10;;;;;;;8.93;100.00;99298.41;5045259;28;20028;-59
2022/04/06 09:25:19;;;;;;;6.32;2.30;;;;;;;9.05;100.00;99318.66;5044890;28;20832;-59
2022/04/06 09:27:45;;;;;;;7.47;2.53;;;;;;;8.88;100.00;99294.41;5044009;28;20035;-59
2022/04/06 09:30:11;;;;;;;5.00;2.35;;;;;;;8.90;100.00;99295.97;5026678;28;20063;-59
2022/04/06 09:32:37;;;;;;;5.43;2.05;;;;;;;8.95;100.00;99320.13;5026141;28;20789;-59
2022/04/06 09:35:22;;;;;;;5.15;2.13;;;;;;;8.77;100.00;99279.34;5028062;28;20553;-60
2022/04/06 09:37:48;;;;;;;10.18;2.60;;;;;;;9.01;100.00;99316.28;5028438;28;20027;-59
2022/04/06 09:40:13;;;;;;;5.53;2.10;;;;;;;9.00;100.00;99311.97;5045610;28;20804;-59
2022/04/06 09:42:50;;;;;;;4.40;2.08;;;;;;;9.06;100.00;99316.84;5046629;28;20028;-59
2022/04/06 09:48:01;;;;;;;4.07;1.58;;;;;;;9.31;100.00;99303.06;5044307;28;20961;-59
2022/04/06 09:50:27;;;;;;;5.00;2.45;;;;;;;9.36;100.00;99301.00;5050210;28;20027;-59
2022/04/06 09:52:56;;;;;;;4.30;1.98;;;;;;;9.33;100.00;99306.44;5051399;28;20042;-58
2022/04/06 09:55:22;;;;;;;5.75;2.42;;;;;;;9.29;100.00;99276.13;5051031;28;20116;-59
2022/04/06 09:57:52;;;;;;;4.65;2.28;;;;;;;9.65;100.00;99302.63;5051641;28;20456;-59
2022/04/06 10:00:20;;;;;;;5.28;1.80;;;;;;;9.75;100.00;99295.84;5051554;28;20070;-59
2022/04/06 10:02:54;;;;;;;6.32;2.50;;;;;;;9.68;100.00;99295.41;5051847;28;20051;-59
2022/04/06 10:05:20;;;;;;;4.00;1.90;;;;;;;9.50;100.00;99296.56;5053938;28;20028;-59
2022/04/06 10:07:48;;;;;;;4.47;1.77;;;;;;;9.50;100.00;99291.31;5051372;28;20451;-59
2022/04/06 10:10:13;;;;;;;17.58;2.33;;;;;;;9.62;100.00;99297.56;5051331;28;20039;-59
2022/04/06 10:12:40;;;;;;;7.22;1.80;;;;;;;9.66;100.00;99292.03;5033827;28;20098;-59
2022/04/06 10:15:05;;;;;;;3.83;2.00;;;;;;;9.68;100.00;99286.69;5051621;28;20032;-59
2022/04/06 10:17:31;;;;;;;5.72;1.77;;;;;;;9.78;100.00;99285.16;5035687;28;20129;-58
2022/04/06 10:20:25;;;;;;;12.13;2.15;;;;;;;9.90;100.00;99275.66;5052173;28;20035;-60
2022/04/06 10:23:00;;;;;;;6.90;2.17;;;;;;;9.92;100.00;99265.88;5033864;28;20226;-59
2022/04/06 10:25:50;;;;;;;3.38;1.65;;;;;;;9.56;100.00;99232.41;5050559;28;20833;-59
2022/04/06 10:28:16;;;;;;;5.95;2.13;;;;;;;9.82;100.00;99270.91;5051359;28;20047;-59
2022/04/06 10:31:19;;;;;;;5.47;1.63;;;;;;;9.85;100.00;99268.06;5052370;28;20027;-59
2022/04/06 10:33:45;;;;;;;3.65;1.55;;;;;;;9.83;100.00;99259.47;5052884;28;20039;-59
2022/04/06 10:36:17;;;;;;;6.85;2.38;;;;;;;9.92;100.00;99277.22;5051318;28;20964;-59
2022/04/06 10:39:06;;;;;;;4.85;2.08;;;;;;;9.93;100.00;99257.94;5051728;28;20077;-59
2022/04/06 10:41:33;;;;;;;4.05;2.05;;;;;;;9.94;100.00;99269.25;5051962;28;20032;-59
2022/04/06 10:43:58;;;;;;;7.68;2.75;;;;;;;9.92;100.00;99285.09;5052380;28;20077;-59
2022/04/06 10:46:34;;;;;;;12.38;2.30;;;;;;;9.96;100.00;99267.38;5052199;28;20939;-59
2022/04/06 10:49:13;;;;;;;8.68;2.55;;;;;;;9.91;100.00;99258.94;5052080;28;20028;-59
2022/04/06 10:51:56;;;;;;;3.45;1.67;;;;;;;9.92;100.00;99251.00;5050728;28;20024;-59
2022/04/06 10:54:22;;;;;;;7.32;3.00;;;;;;;9.92;100.00;99266.75;5034372;28;20142;-59
2022/04/06 10:56:50;;;;;;;5.38;1.75;;;;;;;9.91;100.00;99249.31;5051215;28;20034;-59
2022/04/06 10:59:19;;;;;;;3.88;1.85;;;;;;;9.90;100.00;99237.13;5051491;28;20123;-59
2022/04/06 11:01:48;;;;;;;6.60;1.80;;;;;;;9.92;100.00;99261.50;5048324;28;20915;-59
2022/04/06 11:04:23;;;;;;;4.22;1.95;;;;;;;9.93;100.00;99249.22;5048808;28;20032;-59
2022/04/06 11:06:49;;;;;;;3.67;1.75;;;;;;;9.92;100.00;99256.25;5047725;28;20035;-59
2022/04/06 11:12:26;;;;;;;5.88;1.60;;;;;;;9.77;100.00;99230.19;5048101;28;20977;-59
2022/04/06 11:15:00;;;;;;;5.38;2.10;;;;;;;9.84;100.00;99252.41;5048243;28;20028;-59
2022/04/06 11:17:34;;;;;;;;;;;;;;;9.84;100.00;99248.03;5048359;28;20872;-59
2022/04/06 11:20:04;;;;;;;5.27;1.87;;;;;;;9.84;100.00;99237.53;5048842;28;19919;-60
2022/04/06 11:22:30;;;;;;;4.45;2.40;;;;;;;9.80;100.00;99243.91;5048666;28;20046;-60
2022/04/06 11:24:56;;;;;;;4.43;2.05;;;;;;;9.87;100.00;99232.06;5031733;28;20028;-59
2022/04/06 11:27:32;;;;;;;6.75;2.00;;;;;;;9.88;100.00;99218.03;5048158;28;20043;-59
2022/04/06 11:30:04;;;;;;;6.65;2.83;;;;;;;9.83;100.00;99220.13;5047887;28;21008;-60
2022/04/06 11:32:29;;;;;;;3.75;1.70;;;;;;;9.87;100.00;99226.00;5030383;28;20047;-59
2022/04/06 11:35:05;;;;;;;4.70;2.40;;;;;;;9.84;100.00;99211.28;5047015;28;20032;-60
2022/04/06 11:37:32;;;;;;;7.80;2.40;;;;;;;9.87;100.00;99205.03;5047002;28;20032;-59